createdAt,value
2017-12-05T00:02:12.093Z,11.13
2017-12-05T00:04:41.140Z,15.32
2017-12-05T00:07:10.206Z,12.27
2017-12-05T00:09:39.278Z,15.18
2017-12-05T00:12:08.327Z,15.52
2017-12-05T00:14:39.362Z,12.90
2017-12-05T00:17:08.402Z,15.27
2017-12-05T00:22:16.715Z,14.27
2017-12-05T00:25:00.636Z,16.83
2017-12-05T00:27:30.617Z,15.30
2017-12-05T00:30:01.590Z,11.40
2017-12-05T00:32:31.592Z,14.60
2017-12-05T00:35:01.542Z,12.70
2017-12-05T00:37:39.983Z,15.60
2017-12-05T00:40:09.128Z,11.63
2017-12-05T00:42:38.226Z,14.52
2017-12-05T00:45:07.275Z,10.20
2017-12-05T00:47:40.317Z,15.27
2017-12-05T00:50:09.362Z,11.80
2017-12-05T00:52:40.355Z,14.85
2017-12-05T00:55:09.398Z,12.17
2017-12-05T00:57:40.402Z,15.07
2017-12-05T01:00:09.492Z,10.87
2017-12-05T01:02:38.549Z,14.20
2017-12-05T01:05:07.598Z,11.73
2017-12-05T01:07:36.637Z,15.23
2017-12-05T01:10:05.682Z,13.53
2017-12-05T01:12:42.284Z,16.42
2017-12-05T01:15:11.416Z,16.08
2017-12-05T01:17:40.462Z,15.93
2017-12-05T01:20:09.580Z,12.43
2017-12-05T01:22:38.618Z,14.30
2017-12-05T01:25:07.686Z,13.27
2017-12-05T01:27:40.439Z,15.70
2017-12-05T01:30:09.487Z,13.00
2017-12-05T01:32:40.482Z,16.92
2017-12-05T01:35:09.524Z,13.20
2017-12-05T01:37:39.505Z,15.65
2017-12-05T01:40:08.542Z,11.83
2017-12-05T01:42:59.258Z,14.32
2017-12-05T01:45:28.334Z,11.20
2017-12-05T01:47:57.391Z,15.38
2017-12-05T01:50:27.422Z,12.33
2017-12-05T01:55:36.560Z,16.52
2017-12-05T01:58:05.596Z,13.17
2017-12-05T02:00:34.661Z,15.77
2017-12-05T02:03:03.701Z,14.00
2017-12-05T02:05:32.870Z,15.30
2017-12-05T02:08:01.922Z,12.60
2017-12-05T02:10:31.026Z,15.02
2017-12-05T02:13:00.070Z,12.70
2017-12-05T02:15:30.075Z,14.95
2017-12-05T02:17:59.125Z,12.77
2017-12-05T02:20:28.168Z,15.80
2017-12-05T02:23:01.162Z,11.90
2017-12-05T02:25:31.198Z,16.12
2017-12-05T02:28:01.156Z,12.60
2017-12-05T02:30:30.219Z,16.10
2017-12-05T02:33:01.147Z,12.93
2017-12-05T02:35:31.159Z,16.42
2017-12-05T02:38:01.115Z,13.20
2017-12-05T02:40:49.846Z,15.15
2017-12-05T02:43:19.762Z,12.00
2017-12-05T02:46:00.927Z,15.70
2017-12-05T02:51:07.142Z,15.70
2017-12-05T02:53:44.501Z,13.50
2017-12-05T02:56:13.543Z,15.93
2017-12-05T02:58:42.585Z,13.90
2017-12-05T03:01:11.638Z,15.25
2017-12-05T03:03:41.590Z,15.35
2017-12-05T03:06:10.635Z,14.70
2017-12-05T03:08:40.635Z,16.35
2017-12-05T03:11:09.678Z,12.67
2017-12-05T03:13:38.721Z,15.82
2017-12-05T03:16:07.799Z,12.30
2017-12-05T03:18:36.827Z,15.20
2017-12-05T03:21:05.876Z,12.10
2017-12-05T03:23:35.858Z,13.90
2017-12-05T03:26:04.910Z,14.17
2017-12-05T03:28:33.939Z,16.02
2017-12-05T03:31:03.899Z,14.52
2017-12-05T03:33:36.120Z,13.30
2017-12-05T03:36:05.168Z,15.10
2017-12-05T03:38:34.233Z,15.10
2017-12-05T03:41:03.317Z,11.23
2017-12-05T03:43:32.399Z,14.85
2017-12-05T03:46:01.418Z,12.37
2017-12-05T03:48:32.454Z,14.57
2017-12-05T03:51:01.510Z,12.30
2017-12-05T03:56:15.411Z,15.02
2017-12-05T03:58:44.441Z,14.15
2017-12-05T04:01:13.475Z,10.77
2017-12-05T04:03:49.990Z,13.02
2017-12-05T04:06:19.015Z,15.88
2017-12-05T04:14:01.971Z,14.80
2017-12-05T04:19:09.155Z,13.85
2017-12-05T04:21:38.200Z,14.25
2017-12-05T04:24:07.242Z,12.47
2017-12-05T04:26:39.850Z,14.05
2017-12-05T04:29:08.879Z,12.23
2017-12-05T04:31:42.206Z,13.35
2017-12-05T04:34:12.197Z,11.47
2017-12-05T04:36:46.158Z,13.70
2017-12-05T04:39:15.227Z,14.07
2017-12-05T04:41:52.018Z,12.17
2017-12-05T04:49:41.324Z,14.02
2017-12-05T04:52:11.371Z,11.53
2017-12-05T04:54:40.398Z,12.32
2017-12-05T04:57:09.453Z,10.70
2017-12-05T05:02:30.243Z,12.73
2017-12-05T05:05:00.208Z,10.23
2017-12-05T05:07:29.258Z,12.10
2017-12-05T05:10:01.797Z,9.90
2017-12-05T05:12:34.732Z,12.82
2017-12-05T05:15:03.790Z,9.90
2017-12-05T05:20:09.078Z,12.02
2017-12-05T05:25:14.343Z,11.60
2017-12-05T05:27:43.390Z,11.38
2017-12-05T05:30:12.428Z,9.57
2017-12-05T05:32:41.494Z,11.10
2017-12-05T05:35:10.543Z,11.30
2017-12-05T05:43:05.414Z,11.55
2017-12-05T05:45:34.479Z,9.77
2017-12-05T05:48:03.513Z,11.27
2017-12-05T05:50:34.542Z,10.93
2017-12-05T05:53:03.587Z,9.10
2017-12-05T05:55:32.623Z,11.50
2017-12-05T05:58:01.665Z,9.30
2017-12-05T06:00:30.714Z,10.60
2017-12-05T06:03:01.650Z,10.00
2017-12-05T06:05:36.682Z,11.60
2017-12-05T06:08:05.706Z,11.85
2017-12-05T06:10:38.278Z,10.53
2017-12-05T06:13:07.316Z,10.93
2017-12-05T06:15:36.425Z,9.27
2017-12-05T06:18:05.476Z,11.40
2017-12-05T06:20:34.514Z,9.43
2017-12-05T06:23:03.562Z,10.38
2017-12-05T06:25:45.463Z,8.43
2017-12-05T06:28:14.502Z,10.52
2017-12-05T06:30:45.492Z,9.00
2017-12-05T06:33:14.535Z,11.05
2017-12-05T06:36:01.961Z,8.63
2017-12-05T06:38:31.034Z,10.50
2017-12-05T06:41:00.974Z,10.50
2017-12-05T06:43:33.754Z,9.70
2017-12-05T06:46:02.847Z,10.60
2017-12-05T06:51:10.085Z,11.00
2017-12-05T06:53:40.084Z,11.10
2017-12-05T06:56:09.143Z,10.70
2017-12-05T06:58:40.173Z,10.25
2017-12-05T07:01:09.249Z,9.10
2017-12-05T07:03:38.288Z,10.40
2017-12-05T07:06:07.336Z,10.73
2017-12-05T07:08:44.084Z,9.00
2017-12-05T07:11:13.098Z,10.85
2017-12-05T07:14:00.630Z,8.53
2017-12-05T07:16:29.684Z,10.80
2017-12-05T07:18:59.738Z,8.10
2017-12-05T07:21:28.774Z,10.55
2017-12-05T07:23:57.810Z,8.90
2017-12-05T07:26:26.882Z,10.57
2017-12-05T07:31:32.412Z,10.10
2017-12-05T07:34:02.959Z,9.73
2017-12-05T07:36:32.058Z,10.90
2017-12-05T07:39:11.521Z,11.27
2017-12-05T07:41:40.570Z,7.90
2017-12-05T07:44:09.615Z,10.80
2017-12-05T07:46:42.821Z,9.10
2017-12-05T07:49:11.987Z,10.60
2017-12-05T07:51:41.041Z,8.63
2017-12-05T07:54:10.088Z,10.20
2017-12-05T07:56:39.115Z,9.13
2017-12-05T07:59:08.160Z,10.30
2017-12-05T08:04:12.288Z,10.07
2017-12-05T08:06:46.770Z,9.30
2017-12-05T08:09:15.961Z,10.75
2017-12-05T08:14:20.261Z,10.90
2017-12-05T08:16:51.262Z,9.60
2017-12-05T08:19:21.981Z,9.00
2017-12-05T08:21:57.962Z,9.27
2017-12-05T08:24:28.299Z,10.77
2017-12-05T08:26:57.338Z,11.30
2017-12-05T08:29:26.430Z,9.60
2017-12-05T08:31:55.469Z,10.30
2017-12-05T08:37:06.578Z,11.05
2017-12-05T08:39:40.376Z,10.82
2017-12-05T08:42:09.425Z,10.50
2017-12-05T08:44:38.482Z,8.70
2017-12-05T08:47:07.533Z,11.07
2017-12-05T08:49:36.681Z,8.97
2017-12-05T08:52:07.668Z,10.13
2017-12-05T08:54:36.705Z,10.25
2017-12-05T08:57:05.757Z,9.30
2017-12-05T08:59:34.862Z,9.20
2017-12-05T09:02:03.979Z,7.30
2017-12-05T09:07:14.118Z,9.68
2017-12-05T09:09:49.660Z,10.02
2017-12-05T09:12:22.229Z,8.07
2017-12-05T09:14:56.389Z,8.77
2017-12-05T09:17:31.336Z,8.30
2017-12-05T09:20:05.833Z,7.23
2017-12-05T09:22:42.121Z,7.90
2017-12-05T09:25:12.191Z,8.37
2017-12-05T09:27:44.947Z,11.55
2017-12-05T09:30:15.309Z,9.03
2017-12-05T09:32:44.316Z,8.40
2017-12-05T09:35:14.809Z,8.87
2017-12-05T09:40:45.945Z,10.18
2017-12-05T09:43:15.231Z,8.13
2017-12-05T09:45:46.305Z,8.60
2017-12-05T09:48:20.829Z,7.93
2017-12-05T09:50:49.901Z,8.70
2017-12-05T09:53:19.382Z,9.47
2017-12-05T09:55:53.549Z,10.00
2017-12-05T09:58:32.250Z,9.03
2017-12-05T10:01:01.354Z,8.60
2017-12-05T10:03:41.139Z,10.20
2017-12-05T10:06:23.730Z,8.70
2017-12-05T10:08:52.849Z,7.63
2017-12-05T10:11:27.298Z,9.20
2017-12-05T10:13:56.403Z,8.37
2017-12-05T10:16:27.716Z,10.07
2017-12-05T10:18:56.931Z,10.27
2017-12-05T10:21:39.250Z,9.50
2017-12-05T10:24:20.540Z,9.00
2017-12-05T10:26:53.690Z,8.37
2017-12-05T10:31:59.144Z,9.95
2017-12-05T10:34:28.182Z,7.70
2017-12-05T10:36:57.230Z,8.77
2017-12-05T10:42:01.470Z,9.95
2017-12-05T10:47:05.767Z,10.70
2017-12-05T10:49:35.762Z,7.97
2017-12-05T10:52:04.852Z,8.43
2017-12-05T10:54:33.895Z,10.60
2017-12-05T10:57:03.825Z,9.50
2017-12-05T10:59:39.977Z,8.20
2017-12-05T11:02:09.039Z,8.27
2017-12-05T11:04:38.077Z,8.93
2017-12-05T11:07:07.102Z,6.83
2017-12-05T11:09:36.144Z,7.70
2017-12-05T11:14:44.365Z,9.43
2017-12-05T11:17:13.396Z,9.50
2017-12-05T11:19:42.590Z,8.13
2017-12-05T11:22:11.625Z,7.67
2017-12-05T11:24:40.659Z,7.70
2017-12-05T11:27:10.046Z,8.00
2017-12-05T11:29:39.088Z,9.98
2017-12-05T11:32:08.124Z,8.53
2017-12-05T11:34:37.190Z,8.03
2017-12-05T11:37:06.215Z,9.07
2017-12-05T11:39:42.658Z,8.33
2017-12-05T11:42:15.430Z,8.00
2017-12-05T11:44:44.476Z,8.97
2017-12-05T11:47:13.502Z,8.10
2017-12-05T11:49:46.318Z,9.40
2017-12-05T11:52:15.346Z,8.00
2017-12-05T11:54:44.396Z,7.70
2017-12-05T11:57:13.423Z,7.40
2017-12-05T11:59:42.465Z,8.75
2017-12-05T12:04:47.643Z,9.70
2017-12-05T12:09:51.866Z,8.73
2017-12-05T12:12:24.920Z,8.37
2017-12-05T12:14:53.969Z,7.50
2017-12-05T12:17:46.120Z,7.90
2017-12-05T12:20:15.159Z,7.50
2017-12-05T12:22:46.182Z,7.83
2017-12-05T12:27:50.454Z,9.50
2017-12-05T12:30:23.408Z,8.70
2017-12-05T12:32:53.356Z,8.17
2017-12-05T12:35:23.455Z,8.67
2017-12-05T12:37:52.462Z,8.10
2017-12-05T12:40:26.663Z,6.83
2017-12-05T12:42:55.694Z,6.97
2017-12-05T12:45:25.690Z,7.60
2017-12-05T12:47:54.712Z,7.33
2017-12-05T12:50:23.783Z,8.63
2017-12-05T12:52:52.817Z,7.93
2017-12-05T12:55:21.866Z,7.03
2017-12-05T12:57:50.910Z,7.30
2017-12-05T13:00:31.036Z,9.13
2017-12-05T13:03:00.050Z,8.47
2017-12-05T13:05:31.304Z,8.80
2017-12-05T13:08:00.311Z,8.00
2017-12-05T13:10:39.227Z,7.60
2017-12-05T13:13:27.822Z,7.63
2017-12-05T13:15:56.850Z,7.20
2017-12-05T13:18:43.633Z,8.43
2017-12-05T13:23:49.337Z,9.20
2017-12-05T13:26:19.391Z,9.10
2017-12-05T13:28:48.413Z,8.93
2017-12-05T13:31:23.267Z,7.17
2017-12-05T13:33:52.343Z,7.53
2017-12-05T13:38:57.579Z,10.30
2017-12-05T13:41:26.618Z,9.68
2017-12-05T13:43:55.727Z,8.53
2017-12-05T13:49:00.899Z,9.68
2017-12-05T13:51:31.929Z,8.90
2017-12-05T13:54:00.954Z,8.00
2017-12-05T13:56:30.950Z,8.27
2017-12-05T13:59:00.140Z,8.10
2017-12-05T14:04:05.218Z,10.27
2017-12-05T14:06:34.267Z,9.77
2017-12-05T14:09:04.386Z,8.10
2017-12-05T14:11:33.431Z,7.57
2017-12-05T14:14:03.351Z,7.37
2017-12-05T14:16:33.494Z,7.47
2017-12-05T14:19:02.519Z,7.90
2017-12-05T14:24:14.879Z,9.13
2017-12-05T14:26:43.912Z,8.37
2017-12-05T14:29:13.898Z,8.47
2017-12-05T14:34:19.267Z,9.20
2017-12-05T14:36:48.302Z,9.70
2017-12-05T14:39:21.976Z,10.20
2017-12-05T14:41:51.018Z,8.07
2017-12-05T14:46:55.764Z,10.45
2017-12-05T14:49:33.008Z,11.90
2017-12-05T14:52:02.083Z,9.97
2017-12-05T14:54:31.129Z,9.23
2017-12-05T14:57:00.170Z,10.02
2017-12-05T14:59:38.608Z,15.40
2017-12-05T15:02:09.658Z,13.37
2017-12-05T15:04:38.720Z,11.73
2017-12-05T15:07:07.751Z,8.37
2017-12-05T15:12:14.063Z,10.63
2017-12-05T15:14:46.842Z,9.80
2017-12-05T15:17:19.613Z,8.20
2017-12-05T15:19:48.759Z,9.30
2017-12-05T15:22:30.390Z,9.10
2017-12-05T15:24:59.423Z,17.57
2017-12-05T15:27:36.096Z,10.23
2017-12-05T15:30:05.252Z,8.50
2017-12-05T15:35:24.493Z,14.13
2017-12-05T15:37:53.598Z,10.38
2017-12-05T15:40:34.518Z,8.53
2017-12-05T15:43:04.154Z,7.20
2017-12-05T15:45:44.184Z,8.00
2017-12-05T15:48:16.951Z,7.00
2017-12-05T15:53:47.179Z,8.80
2017-12-05T15:56:16.211Z,7.67
2017-12-05T15:58:45.770Z,7.93
2017-12-05T16:03:49.971Z,9.10
2017-12-05T16:06:36.089Z,9.00
2017-12-05T16:09:05.526Z,8.20
2017-12-05T16:11:35.557Z,10.48
2017-12-05T16:14:07.604Z,7.53
2017-12-05T16:16:36.635Z,8.53
2017-12-05T16:19:05.793Z,8.53
2017-12-05T16:21:34.954Z,7.83
2017-12-05T16:24:05.053Z,9.93
2017-12-05T16:26:37.422Z,10.27
2017-12-05T16:29:10.341Z,8.20
2017-12-05T16:31:40.403Z,8.10
2017-12-05T16:34:21.306Z,7.90
2017-12-05T16:36:50.318Z,7.27
2017-12-05T16:39:27.185Z,9.50
2017-12-05T16:41:56.218Z,6.97
2017-12-05T16:44:25.255Z,9.80
2017-12-05T16:46:54.296Z,7.93
2017-12-05T16:49:23.330Z,9.43
2017-12-05T16:51:52.382Z,7.00
2017-12-05T16:54:21.503Z,9.63
2017-12-05T16:56:50.657Z,8.80
2017-12-05T17:01:54.957Z,16.27
2017-12-05T17:04:24.007Z,48.10
2017-12-05T17:06:53.043Z,51.83
2017-12-05T17:09:24.091Z,10.97
2017-12-05T17:11:53.125Z,13.60
2017-12-05T17:16:59.369Z,11.90
2017-12-05T17:19:28.511Z,10.00
2017-12-05T17:21:59.522Z,11.00
2017-12-05T17:27:04.597Z,11.32
2017-12-05T17:29:46.453Z,12.63
2017-12-05T17:32:16.446Z,9.53
2017-12-05T17:34:46.448Z,9.60
2017-12-05T17:37:16.855Z,9.77
2017-12-05T17:39:46.812Z,12.60
2017-12-05T17:42:16.880Z,10.20
2017-12-05T17:44:46.823Z,11.80
2017-12-05T17:47:23.218Z,14.90
2017-12-05T17:49:52.276Z,12.33
2017-12-05T17:52:22.240Z,14.20
2017-12-05T17:54:51.311Z,13.95
2017-12-05T17:59:56.608Z,14.40
2017-12-05T18:02:37.696Z,15.57
2017-12-05T18:05:06.742Z,15.00
2017-12-05T18:07:37.162Z,31.87
2017-12-05T18:10:07.207Z,12.57
2017-12-05T18:12:47.024Z,14.87
2017-12-05T18:15:21.931Z,15.10
2017-12-05T18:17:50.996Z,12.90
2017-12-05T18:23:00.920Z,15.70
2017-12-05T18:25:29.986Z,14.95
2017-12-05T18:27:59.070Z,14.65
2017-12-05T18:30:28.203Z,11.83
2017-12-05T18:32:57.253Z,12.30
2017-12-05T18:38:01.714Z,14.77
2017-12-05T18:40:33.962Z,13.80
2017-12-05T18:43:02.985Z,14.68
2017-12-05T18:45:46.955Z,16.00
2017-12-05T18:50:54.190Z,15.90
2017-12-05T18:53:23.935Z,16.37
2017-12-05T18:55:52.978Z,13.50
2017-12-05T18:58:22.167Z,16.83
2017-12-05T19:00:51.207Z,14.70
2017-12-05T19:03:20.246Z,16.58
2017-12-05T19:05:49.294Z,14.97
2017-12-05T19:08:18.342Z,17.23
2017-12-05T19:10:47.385Z,17.20
2017-12-05T19:13:16.911Z,13.57
2017-12-05T19:15:52.124Z,16.45
2017-12-05T19:18:21.182Z,14.33
2017-12-05T19:20:53.874Z,17.40
2017-12-05T19:23:22.917Z,13.70
2017-12-05T19:25:53.859Z,17.17
2017-12-05T19:28:22.970Z,18.95
2017-12-05T19:30:52.017Z,15.20
2017-12-05T19:33:21.059Z,18.95
2017-12-05T19:35:51.154Z,18.30
2017-12-05T19:38:20.197Z,16.10
2017-12-05T19:40:49.231Z,18.35
2017-12-05T19:43:18.290Z,20.50
2017-12-05T19:45:47.335Z,17.30
2017-12-05T19:48:16.395Z,19.92
2017-12-05T19:50:53.338Z,20.40
2017-12-05T19:53:22.377Z,15.60
2017-12-05T19:55:52.407Z,19.00
2017-12-05T19:58:21.434Z,15.80
2017-12-05T20:03:25.691Z,18.40
2017-12-05T20:06:04.836Z,17.20
2017-12-05T20:08:34.638Z,18.10
2017-12-05T20:11:07.286Z,18.95
2017-12-05T20:13:37.275Z,14.00
2017-12-05T20:16:09.851Z,17.25
2017-12-05T20:18:44.491Z,15.40
2017-12-05T20:23:48.791Z,17.55
2017-12-05T20:26:18.330Z,15.80
2017-12-05T20:28:51.983Z,17.58
2017-12-05T20:31:21.058Z,14.40
2017-12-05T20:33:52.157Z,17.85
2017-12-05T20:36:23.351Z,15.30
2017-12-05T20:38:52.441Z,18.50
2017-12-05T20:41:22.425Z,14.83
2017-12-05T20:43:51.483Z,19.37
2017-12-05T20:46:20.640Z,15.50
2017-12-05T20:48:56.502Z,18.60
2017-12-05T20:51:25.549Z,14.53
2017-12-05T20:53:58.123Z,18.30
2017-12-05T20:56:27.278Z,16.17
2017-12-05T20:58:57.249Z,18.30
2017-12-05T21:01:30.642Z,14.47
2017-12-05T21:04:08.224Z,17.62
2017-12-05T21:06:43.796Z,17.95
2017-12-05T21:14:39.419Z,18.80
2017-12-05T21:22:22.758Z,18.87
2017-12-05T21:24:55.613Z,15.63
2017-12-05T21:27:24.676Z,18.05
2017-12-05T21:29:54.667Z,14.70
2017-12-05T21:32:25.654Z,17.62
2017-12-05T21:37:36.174Z,18.55
2017-12-05T21:40:05.609Z,14.53
2017-12-05T21:42:39.546Z,18.02
2017-12-05T21:45:16.500Z,16.83
2017-12-05T21:47:53.426Z,18.98
2017-12-05T21:50:22.791Z,19.50
2017-12-05T21:52:53.910Z,15.50
2017-12-05T21:55:22.971Z,19.20
2017-12-05T21:58:00.995Z,15.03
2017-12-05T22:00:35.845Z,17.85
2017-12-05T22:08:16.767Z,19.85
2017-12-05T22:10:49.828Z,15.37
2017-12-05T22:13:23.320Z,18.90
2017-12-05T22:15:53.342Z,14.33
2017-12-05T22:18:22.436Z,18.20
2017-12-05T22:23:27.710Z,18.27
2017-12-05T22:25:57.806Z,14.47
2017-12-05T22:28:26.894Z,18.62
2017-12-05T22:30:56.872Z,15.33
2017-12-05T22:33:25.874Z,18.95
2017-12-05T22:35:55.881Z,15.30
2017-12-05T22:38:24.918Z,18.65
2017-12-05T22:40:55.681Z,18.83
2017-12-05T22:43:24.719Z,15.20
2017-12-05T22:45:57.323Z,17.90
2017-12-05T22:48:26.725Z,18.58
2017-12-05T22:50:59.819Z,15.17
2017-12-05T22:53:29.324Z,18.00
2017-12-05T22:55:58.372Z,17.23
2017-12-05T22:58:27.447Z,19.52
2017-12-05T23:00:56.495Z,19.27
2017-12-05T23:03:27.594Z,16.27
2017-12-05T23:08:47.540Z,18.58
2017-12-05T23:11:16.573Z,14.60
2017-12-05T23:13:50.238Z,18.05
2017-12-05T23:16:20.922Z,18.45
2017-12-05T23:18:50.948Z,16.90
2017-12-05T23:21:20.034Z,15.00
2017-12-05T23:23:49.050Z,17.10
2017-12-05T23:26:18.186Z,13.77
2017-12-05T23:28:47.210Z,16.70
2017-12-05T23:31:16.254Z,17.83
2017-12-05T23:33:47.216Z,14.50
2017-12-05T23:36:16.322Z,17.08
2017-12-05T23:38:45.387Z,16.70
2017-12-05T23:41:14.466Z,11.97
2017-12-05T23:43:44.442Z,16.20
2017-12-05T23:46:13.483Z,13.73
2017-12-05T23:51:17.733Z,16.55
2017-12-05T23:53:54.150Z,16.30
2017-12-05T23:56:23.190Z,12.70
2017-12-05T23:58:53.170Z,16.00
